createdAt,value
2019-03-27T00:00:37.457Z,70.21
2019-03-27T00:03:05.322Z,71.02
2019-03-27T00:05:33.287Z,71.18
2019-03-27T00:08:01.325Z,71.37
2019-03-27T00:10:29.324Z,71.45
2019-03-27T00:12:57.295Z,71.24
2019-03-27T00:15:25.264Z,71.37
2019-03-27T00:17:53.137Z,71.85
2019-03-27T00:20:20.893Z,72.32
2019-03-27T00:22:48.659Z,72.48
2019-03-27T00:25:16.525Z,73.14
2019-03-27T00:27:44.286Z,73.41
2019-03-27T00:30:13.489Z,73.65
2019-03-27T00:32:41.145Z,73.83
2019-03-27T00:35:09.115Z,73.86
2019-03-27T00:37:36.979Z,73.96
2019-03-27T00:40:05.055Z,74.51
2019-03-27T00:42:32.609Z,74.84
2019-03-27T00:45:00.405Z,74.84
2019-03-27T00:47:28.136Z,75.16
2019-03-27T00:49:55.902Z,75.39
2019-03-27T00:52:24.285Z,75.28
2019-03-27T00:54:52.050Z,75.63
2019-03-27T00:57:19.916Z,75.40
2019-03-27T00:59:47.599Z,75.64
2019-03-27T01:02:15.847Z,75.65
2019-03-27T01:04:44.427Z,75.55
2019-03-27T01:07:12.290Z,76.77
2019-03-27T01:09:39.985Z,76.46
2019-03-27T01:12:07.719Z,76.79
2019-03-27T01:14:35.586Z,76.58
2019-03-27T01:17:03.355Z,76.49
2019-03-27T01:19:31.114Z,76.99
2019-03-27T01:21:58.978Z,76.86
2019-03-27T01:24:26.747Z,77.05
2019-03-27T01:26:54.507Z,77.23
2019-03-27T01:29:22.269Z,77.42
2019-03-27T01:31:50.036Z,77.52
2019-03-27T01:34:17.800Z,77.93
2019-03-27T01:36:45.666Z,76.90
2019-03-27T01:39:13.526Z,76.32
2019-03-27T01:41:41.308Z,76.63
2019-03-27T01:44:09.062Z,77.01
2019-03-27T01:46:36.823Z,77.08
2019-03-27T01:49:04.588Z,77.47
2019-03-27T01:51:32.456Z,77.20
2019-03-27T01:54:00.933Z,77.41
2019-03-27T01:56:28.596Z,77.76
2019-03-27T01:58:57.486Z,77.20
2019-03-27T02:01:25.884Z,77.64
2019-03-27T02:03:53.623Z,77.55
2019-03-27T02:06:21.392Z,77.38
2019-03-27T02:08:49.153Z,77.33
2019-03-27T02:11:16.923Z,77.11
2019-03-27T02:13:44.677Z,76.90
2019-03-27T02:16:12.379Z,76.90
2019-03-27T02:18:40.209Z,77.11
2019-03-27T02:21:07.969Z,76.93
2019-03-27T02:23:35.733Z,77.01
2019-03-27T02:26:03.398Z,77.24
2019-03-27T02:28:31.158Z,76.70
2019-03-27T02:30:59.034Z,77.03
2019-03-27T02:33:26.801Z,76.86
2019-03-27T02:35:54.658Z,76.96
2019-03-27T02:38:22.523Z,76.85
2019-03-27T02:40:50.388Z,77.02
2019-03-27T02:43:18.256Z,76.72
2019-03-27T02:45:47.057Z,76.54
2019-03-27T02:48:14.808Z,76.90
2019-03-27T02:50:43.501Z,76.77
2019-03-27T02:53:11.766Z,76.76
2019-03-27T02:55:39.531Z,76.98
2019-03-27T02:58:07.297Z,77.15
2019-03-27T03:00:35.580Z,77.36
2019-03-27T03:03:03.344Z,76.32
2019-03-27T03:05:31.197Z,76.31
2019-03-27T03:07:58.968Z,76.33
2019-03-27T03:10:26.833Z,76.84
2019-03-27T03:12:54.725Z,76.87
2019-03-27T03:15:22.973Z,76.79
2019-03-27T03:17:50.534Z,77.08
2019-03-27T03:20:18.304Z,77.00
2019-03-27T03:22:46.170Z,76.68
2019-03-27T03:25:14.025Z,76.74
2019-03-27T03:27:41.797Z,77.64
2019-03-27T03:30:11.001Z,77.96
2019-03-27T03:32:38.569Z,77.68
2019-03-27T03:35:06.925Z,77.02
2019-03-27T03:37:34.686Z,77.15
2019-03-27T03:40:03.786Z,77.12
2019-03-27T03:42:31.658Z,76.79
2019-03-27T03:44:59.418Z,76.12
2019-03-27T03:47:27.309Z,75.24
2019-03-27T03:49:55.152Z,75.09
2019-03-27T03:52:23.728Z,74.35
2019-03-27T03:54:51.804Z,74.56
2019-03-27T03:57:20.895Z,73.29
2019-03-27T03:59:48.965Z,73.37
2019-03-27T04:02:17.138Z,72.81
2019-03-27T04:04:45.422Z,72.52
2019-03-27T04:07:13.490Z,71.33
2019-03-27T04:09:41.453Z,71.59
2019-03-27T04:12:09.320Z,71.87
2019-03-27T04:14:37.290Z,71.14
2019-03-27T04:17:17.160Z,71.44
2019-03-27T04:19:35.168Z,70.71
2019-03-27T04:22:03.037Z,70.24
2019-03-27T04:24:31.223Z,70.71
2019-03-27T04:26:59.176Z,71.34
2019-03-27T04:29:27.152Z,70.97
2019-03-27T04:31:55.231Z,70.46
2019-03-27T04:34:23.399Z,69.67
2019-03-27T04:36:51.874Z,69.45
2019-03-27T04:39:19.961Z,70.15
2019-03-27T04:41:47.810Z,70.49
2019-03-27T04:44:15.782Z,70.18
2019-03-27T04:46:43.879Z,69.15
2019-03-27T04:49:11.830Z,69.14
2019-03-27T04:51:39.995Z,69.52
2019-03-27T04:54:09.087Z,69.34
2019-03-27T04:56:37.160Z,68.54
2019-03-27T04:59:05.227Z,68.66
2019-03-27T05:01:33.709Z,68.07
2019-03-27T05:04:02.010Z,68.32
2019-03-27T05:06:29.950Z,67.80
2019-03-27T05:08:57.923Z,66.66
2019-03-27T05:11:25.889Z,66.96
2019-03-27T05:13:54.682Z,67.20
2019-03-27T05:16:22.744Z,65.95
2019-03-27T05:18:50.714Z,67.17
2019-03-27T05:21:18.684Z,66.89
2019-03-27T05:23:46.750Z,66.08
2019-03-27T05:26:14.725Z,66.13
2019-03-27T05:28:42.793Z,65.52
2019-03-27T05:31:10.867Z,65.58
2019-03-27T05:33:39.040Z,65.39
2019-03-27T05:36:07.108Z,64.72
2019-03-27T05:38:35.287Z,64.50
2019-03-27T05:41:03.354Z,64.45
2019-03-27T05:43:31.838Z,63.47
2019-03-27T05:46:00.009Z,62.09
2019-03-27T05:48:27.979Z,62.18
2019-03-27T05:50:56.049Z,62.44
2019-03-27T05:53:24.631Z,61.26
2019-03-27T05:55:52.593Z,59.53
2019-03-27T05:58:20.510Z,58.30
2019-03-27T06:00:48.847Z,58.43
2019-03-27T06:03:16.813Z,57.95
2019-03-27T06:05:44.888Z,57.89
2019-03-27T06:08:12.955Z,59.09
2019-03-27T06:10:41.141Z,57.96
2019-03-27T06:13:09.103Z,56.88
2019-03-27T06:15:36.960Z,58.14
2019-03-27T06:18:12.916Z,57.31
2019-03-27T06:20:35.563Z,55.62
2019-03-27T06:23:03.433Z,55.31
2019-03-27T06:28:25.989Z,54.14
2019-03-27T06:30:53.855Z,53.59
2019-03-27T06:33:21.824Z,52.53
2019-03-27T06:35:50.528Z,53.37
2019-03-27T06:38:18.581Z,53.98
2019-03-27T06:40:46.447Z,51.91
2019-03-27T06:43:15.435Z,50.55
2019-03-27T06:45:43.510Z,48.84
2019-03-27T06:48:11.478Z,47.36
2019-03-27T06:50:39.447Z,47.28
2019-03-27T06:53:07.417Z,46.74
2019-03-27T06:55:35.384Z,46.43
2019-03-27T06:58:03.354Z,46.01
2019-03-27T07:00:36.236Z,46.64
2019-03-27T07:03:05.639Z,46.30
2019-03-27T07:05:33.501Z,45.55
2019-03-27T07:08:01.469Z,45.54
2019-03-27T07:10:29.446Z,42.99
2019-03-27T07:12:57.408Z,42.12
2019-03-27T07:15:25.379Z,42.12
2019-03-27T07:17:53.346Z,41.86
2019-03-27T07:20:21.221Z,40.63
2019-03-27T07:22:49.184Z,40.63
2019-03-27T07:25:17.260Z,40.54
2019-03-27T07:27:45.223Z,40.05
2019-03-27T07:30:15.029Z,38.74
2019-03-27T07:32:43.210Z,38.91
2019-03-27T07:35:11.072Z,37.27
2019-03-27T07:37:39.145Z,35.73
2019-03-27T07:40:07.107Z,34.91
2019-03-27T07:42:35.085Z,35.62
2019-03-27T07:45:05.610Z,36.22
2019-03-27T07:47:33.270Z,36.27
2019-03-27T07:50:01.449Z,35.79
2019-03-27T07:52:29.621Z,35.99
2019-03-27T07:54:57.485Z,36.57
2019-03-27T07:57:25.559Z,35.55
2019-03-27T07:59:53.531Z,36.54
2019-03-27T08:02:21.813Z,34.90
2019-03-27T08:04:50.180Z,34.42
2019-03-27T08:07:26.813Z,33.39
2019-03-27T08:09:47.854Z,33.75
2019-03-27T08:12:15.829Z,33.65
2019-03-27T08:14:43.893Z,33.42
2019-03-27T08:17:11.656Z,35.77
2019-03-27T08:19:39.728Z,36.73
2019-03-27T08:22:07.698Z,36.05
2019-03-27T08:24:35.567Z,35.95
2019-03-27T08:27:03.525Z,35.84
2019-03-27T08:29:31.498Z,35.68
2019-03-27T08:31:59.467Z,36.36
2019-03-27T08:34:27.335Z,36.60
2019-03-27T08:36:55.611Z,35.72
2019-03-27T08:39:23.788Z,36.09
2019-03-27T08:41:51.754Z,35.79
2019-03-27T08:44:19.724Z,35.17
2019-03-27T08:46:47.686Z,34.79
2019-03-27T08:49:21.871Z,36.26
2019-03-27T08:51:45.264Z,36.94
2019-03-27T08:54:13.543Z,36.20
2019-03-27T08:56:41.611Z,35.53
2019-03-27T08:59:11.940Z,35.68
2019-03-27T09:01:40.308Z,35.30
2019-03-27T09:04:09.002Z,35.90
2019-03-27T09:06:36.970Z,36.61
2019-03-27T09:09:06.369Z,37.83
2019-03-27T09:11:34.441Z,38.50
2019-03-27T09:14:02.203Z,37.79
2019-03-27T09:16:30.167Z,36.90
2019-03-27T09:18:58.141Z,37.00
2019-03-27T09:21:26.106Z,37.38
2019-03-27T09:23:53.974Z,37.14
2019-03-27T09:26:21.945Z,37.60
2019-03-27T09:28:50.014Z,37.17
2019-03-27T09:31:18.100Z,36.98
2019-03-27T09:33:46.255Z,38.32
2019-03-27T09:36:14.432Z,37.43
2019-03-27T09:38:42.497Z,39.03
2019-03-27T09:41:10.267Z,39.47
2019-03-27T09:43:38.338Z,37.37
2019-03-27T09:46:06.302Z,38.22
2019-03-27T09:48:34.374Z,39.01
2019-03-27T09:51:03.063Z,38.09
2019-03-27T09:53:31.649Z,38.20
2019-03-27T09:55:59.633Z,37.77
2019-03-27T09:58:28.715Z,38.19
2019-03-27T10:00:58.112Z,35.55
2019-03-27T10:03:25.670Z,35.09
2019-03-27T10:05:53.739Z,35.07
2019-03-27T10:08:21.712Z,34.30
2019-03-27T10:10:49.880Z,34.24
2019-03-27T10:13:18.267Z,35.64
2019-03-27T10:15:46.227Z,34.84
2019-03-27T10:18:14.198Z,35.25
2019-03-27T10:20:42.161Z,35.29
2019-03-27T10:23:10.136Z,35.62
2019-03-27T10:25:38.103Z,35.72
2019-03-27T10:28:06.171Z,35.49
2019-03-27T10:30:34.146Z,35.72
2019-03-27T10:33:02.167Z,35.37
2019-03-27T10:35:30.394Z,35.27
2019-03-27T10:37:58.353Z,36.38
2019-03-27T10:40:26.325Z,37.27
2019-03-27T10:42:54.493Z,36.58
2019-03-27T10:45:22.369Z,35.60
2019-03-27T10:47:50.333Z,35.00
2019-03-27T10:50:18.387Z,36.04
2019-03-27T10:52:46.990Z,34.28
2019-03-27T10:55:14.643Z,33.36
2019-03-27T10:57:42.741Z,33.76
2019-03-27T11:00:10.790Z,34.08
2019-03-27T11:02:40.393Z,34.76
2019-03-27T11:05:08.670Z,34.62
2019-03-27T11:07:37.461Z,33.63
2019-03-27T11:10:06.690Z,35.24
2019-03-27T11:12:34.425Z,35.62
2019-03-27T11:15:05.164Z,34.62
2019-03-27T11:17:32.712Z,34.06
2019-03-27T11:20:00.786Z,34.44
2019-03-27T11:22:28.657Z,34.42
2019-03-27T11:24:56.619Z,35.24
2019-03-27T11:27:24.689Z,35.91
2019-03-27T11:29:52.597Z,34.87
2019-03-27T11:32:20.831Z,35.78
2019-03-27T11:34:48.898Z,35.61
2019-03-27T11:37:16.974Z,36.47
2019-03-27T11:39:44.939Z,36.71
2019-03-27T11:42:12.906Z,36.29
2019-03-27T11:44:40.876Z,35.95
2019-03-27T11:47:08.845Z,36.11
2019-03-27T11:49:36.820Z,35.27
2019-03-27T11:52:04.783Z,35.66
2019-03-27T11:54:34.183Z,35.11
2019-03-27T11:57:01.723Z,36.11
2019-03-27T11:59:29.927Z,35.01
2019-03-27T12:01:58.406Z,36.29
2019-03-27T12:04:26.569Z,36.65
2019-03-27T12:06:54.544Z,36.46
2019-03-27T12:09:22.510Z,37.23
2019-03-27T12:11:50.376Z,37.53
2019-03-27T12:14:18.564Z,36.59
2019-03-27T12:16:49.751Z,38.43
2019-03-27T12:19:16.225Z,37.33
2019-03-27T12:21:45.222Z,38.32
2019-03-27T12:24:13.390Z,39.39
2019-03-27T12:26:41.256Z,42.54
2019-03-27T12:29:09.231Z,44.13
2019-03-27T12:31:37.295Z,45.13
2019-03-27T12:34:05.268Z,46.44
2019-03-27T12:36:33.341Z,47.72
2019-03-27T12:39:01.309Z,49.26
2019-03-27T12:41:29.397Z,51.17
2019-03-27T12:43:57.354Z,52.62
2019-03-27T12:46:25.417Z,53.82
2019-03-27T12:48:53.282Z,55.82
2019-03-27T12:51:21.463Z,55.82
2019-03-27T12:53:49.939Z,58.84
2019-03-27T12:56:17.701Z,58.84
2019-03-27T12:58:45.774Z,60.31
2019-03-27T13:01:14.248Z,60.90
2019-03-27T13:03:44.508Z,61.12
2019-03-27T13:06:11.423Z,60.70
2019-03-27T13:08:39.488Z,60.91
2019-03-27T13:11:07.356Z,61.63
2019-03-27T13:13:35.220Z,61.64
2019-03-27T13:16:03.197Z,62.00
2019-03-27T13:18:31.155Z,63.61
2019-03-27T13:20:59.538Z,65.82
2019-03-27T13:23:27.717Z,65.61
2019-03-27T13:25:55.787Z,67.96
2019-03-27T13:28:23.751Z,68.23
2019-03-27T13:30:51.715Z,68.94
2019-03-27T13:33:19.686Z,67.99
2019-03-27T13:35:47.863Z,68.31
2019-03-27T13:38:15.828Z,69.35
2019-03-27T13:40:43.797Z,70.13
2019-03-27T13:43:11.769Z,71.13
2019-03-27T13:45:39.948Z,72.88
2019-03-27T13:48:07.913Z,72.72
2019-03-27T13:50:35.886Z,75.57
2019-03-27T13:53:04.260Z,74.36
2019-03-27T13:55:34.947Z,74.87
2019-03-27T13:58:02.035Z,75.32
2019-03-27T14:00:30.516Z,76.96
2019-03-27T14:02:58.584Z,77.13
2019-03-27T14:05:26.553Z,76.43
2019-03-27T14:07:54.619Z,77.34
2019-03-27T14:10:22.804Z,77.85
2019-03-27T14:12:50.986Z,77.68
2019-03-27T14:15:19.464Z,79.04
2019-03-27T14:17:47.429Z,80.88
2019-03-27T14:20:15.388Z,80.48
2019-03-27T14:22:43.357Z,77.50
2019-03-27T14:25:11.531Z,77.99
2019-03-27T14:27:39.498Z,78.30
2019-03-27T14:30:10.653Z,79.24
2019-03-27T14:32:38.610Z,79.54
2019-03-27T14:35:07.093Z,80.51
2019-03-27T14:37:34.954Z,77.73
2019-03-27T14:40:05.890Z,75.78
2019-03-27T14:42:33.456Z,76.78
2019-03-27T14:45:01.429Z,76.55
2019-03-27T14:47:29.388Z,76.91
2019-03-27T14:49:57.455Z,76.83
2019-03-27T14:52:25.938Z,78.33
2019-03-27T14:54:53.655Z,77.88
2019-03-27T14:57:21.669Z,80.89
2019-03-27T14:59:49.760Z,81.68
2019-03-27T15:02:18.323Z,78.68
2019-03-27T15:04:46.401Z,81.13
2019-03-27T15:07:14.364Z,80.40
2019-03-27T15:09:42.340Z,80.67
2019-03-27T15:12:10.407Z,81.95
2019-03-27T15:14:38.576Z,80.23
2019-03-27T15:17:06.446Z,80.74
2019-03-27T15:19:35.449Z,82.40
2019-03-27T15:22:03.425Z,82.67
2019-03-27T15:24:31.378Z,83.00
2019-03-27T15:26:59.452Z,82.44
2019-03-27T15:29:27.428Z,82.76
2019-03-27T15:31:55.378Z,83.30
2019-03-27T15:34:23.451Z,83.70
2019-03-27T15:36:51.531Z,83.72
2019-03-27T15:39:19.493Z,83.81
2019-03-27T15:41:47.365Z,83.60
2019-03-27T15:44:15.541Z,82.32
2019-03-27T15:46:43.513Z,84.16
2019-03-27T15:49:11.368Z,84.23
2019-03-27T15:51:40.535Z,83.78
2019-03-27T15:54:09.353Z,84.77
2019-03-27T15:56:38.561Z,85.38
2019-03-27T15:59:06.525Z,84.64
2019-03-27T16:01:34.999Z,85.99
2019-03-27T16:04:02.817Z,85.59
2019-03-27T16:06:32.208Z,85.50
2019-03-27T16:09:00.030Z,84.90
2019-03-27T16:11:28.107Z,84.68
2019-03-27T16:13:56.069Z,83.48
2019-03-27T16:16:24.448Z,84.24
2019-03-27T16:18:53.128Z,84.73
2019-03-27T16:21:21.208Z,84.83
2019-03-27T16:23:49.274Z,84.98
2019-03-27T16:26:17.347Z,84.03
2019-03-27T16:28:45.315Z,85.50
2019-03-27T16:31:13.181Z,84.90
2019-03-27T16:33:41.150Z,85.07
2019-03-27T16:36:09.321Z,85.39
2019-03-27T16:38:37.494Z,84.79
2019-03-27T16:41:05.370Z,84.36
2019-03-27T16:43:33.432Z,85.05
2019-03-27T16:46:01.407Z,84.57
2019-03-27T16:48:29.897Z,84.53
2019-03-27T16:50:58.058Z,83.67
2019-03-27T16:53:26.433Z,83.32
2019-03-27T16:55:54.500Z,83.25
2019-03-27T16:58:22.413Z,83.58
2019-03-27T17:00:50.750Z,84.04
2019-03-27T17:03:19.636Z,84.06
2019-03-27T17:05:53.833Z,84.76
2019-03-27T17:08:17.003Z,84.37
2019-03-27T17:10:44.981Z,85.23
2019-03-27T17:13:12.946Z,85.40
2019-03-27T17:15:40.913Z,86.63
2019-03-27T17:18:08.884Z,86.50
2019-03-27T17:20:37.571Z,86.97
2019-03-27T17:23:17.560Z,87.36
2019-03-27T17:25:35.348Z,86.48
2019-03-27T17:28:03.421Z,86.95
2019-03-27T17:30:32.122Z,87.07
2019-03-27T17:33:00.284Z,87.31
2019-03-27T17:35:28.701Z,87.68
2019-03-27T17:37:56.730Z,87.43
2019-03-27T17:40:24.797Z,87.17
2019-03-27T17:42:52.798Z,86.34
2019-03-27T17:45:22.396Z,86.45
2019-03-27T17:47:50.345Z,87.20
2019-03-27T17:50:18.411Z,87.01
2019-03-27T17:52:46.594Z,87.60
2019-03-27T17:55:14.664Z,87.16
2019-03-27T17:57:42.626Z,86.92
2019-03-27T18:00:14.896Z,86.55
2019-03-27T18:02:43.182Z,87.19
2019-03-27T18:05:10.939Z,87.76
2019-03-27T18:07:39.009Z,87.54
2019-03-27T18:10:06.876Z,86.68
2019-03-27T18:12:34.947Z,86.43
2019-03-27T18:15:05.883Z,87.03
2019-03-27T18:17:33.855Z,87.05
2019-03-27T18:20:01.824Z,87.20
2019-03-27T18:22:30.403Z,86.84
2019-03-27T18:24:59.090Z,86.71
2019-03-27T18:27:27.064Z,86.72
2019-03-27T18:29:55.025Z,87.34
2019-03-27T18:32:23.098Z,87.20
2019-03-27T18:34:51.170Z,87.21
2019-03-27T18:37:19.240Z,87.75
2019-03-27T18:39:47.292Z,86.91
2019-03-27T18:42:15.382Z,86.81
2019-03-27T18:44:43.345Z,87.66
2019-03-27T18:47:11.417Z,87.48
2019-03-27T18:49:39.285Z,87.24
2019-03-27T18:52:07.458Z,86.94
2019-03-27T18:54:35.938Z,86.85
2019-03-27T18:57:04.829Z,86.48
2019-03-27T18:59:32.895Z,86.96
2019-03-27T19:02:01.280Z,86.35
2019-03-27T19:04:29.242Z,86.68
2019-03-27T19:06:58.684Z,86.00
2019-03-27T19:09:26.823Z,86.18
2019-03-27T19:11:54.603Z,85.59
2019-03-27T19:14:22.757Z,86.42
2019-03-27T19:16:50.724Z,86.48
2019-03-27T19:19:18.691Z,86.35
2019-03-27T19:21:46.868Z,86.94
2019-03-27T19:24:16.704Z,87.48
2019-03-27T19:26:44.340Z,86.08
2019-03-27T19:29:12.315Z,86.15
2019-03-27T19:31:40.176Z,85.59
2019-03-27T19:34:08.261Z,86.29
2019-03-27T19:36:36.625Z,85.72
2019-03-27T19:39:06.847Z,86.44
2019-03-27T19:41:36.872Z,85.66
2019-03-27T19:44:05.135Z,86.05
2019-03-27T19:46:33.205Z,85.33
2019-03-27T19:49:01.181Z,86.28
2019-03-27T19:51:29.247Z,85.23
2019-03-27T19:53:57.424Z,84.54
2019-03-27T19:56:25.289Z,84.99
2019-03-27T19:58:53.154Z,83.87
2019-03-27T20:01:21.737Z,86.22
2019-03-27T20:03:49.823Z,85.66
2019-03-27T20:06:17.779Z,86.16
2019-03-27T20:08:45.847Z,87.16
2019-03-27T20:11:13.814Z,87.80
2019-03-27T20:13:41.785Z,87.35
2019-03-27T20:16:09.750Z,87.54
2019-03-27T20:18:37.929Z,87.04
2019-03-27T20:21:05.903Z,87.53
2019-03-27T20:23:34.580Z,85.84
2019-03-27T20:26:02.858Z,86.84
2019-03-27T20:28:30.719Z,86.72
2019-03-27T20:30:58.892Z,87.85
2019-03-27T20:33:27.068Z,87.37
2019-03-27T20:35:55.041Z,88.28
2019-03-27T20:38:23.246Z,88.14
2019-03-27T20:40:51.178Z,87.44
2019-03-27T20:43:19.349Z,87.55
2019-03-27T20:45:47.323Z,87.23
2019-03-27T20:48:15.289Z,86.84
2019-03-27T20:50:43.354Z,86.03
2019-03-27T20:53:11.530Z,85.77
2019-03-27T20:55:39.396Z,87.02
2019-03-27T20:58:07.467Z,87.30
2019-03-27T21:00:35.855Z,85.89
2019-03-27T21:03:03.612Z,85.79
2019-03-27T21:05:34.870Z,85.74
2019-03-27T21:08:01.190Z,85.26
2019-03-27T21:10:29.258Z,85.21
2019-03-27T21:12:57.432Z,85.10
2019-03-27T21:15:25.192Z,84.79
2019-03-27T21:17:53.170Z,84.77
2019-03-27T21:20:21.027Z,84.95
2019-03-27T21:22:49.002Z,85.94
2019-03-27T21:25:17.069Z,85.17
2019-03-27T21:27:45.042Z,85.16
2019-03-27T21:30:13.004Z,85.42
2019-03-27T21:32:41.079Z,84.02
2019-03-27T21:35:09.254Z,84.83
2019-03-27T21:37:37.217Z,85.02
2019-03-27T21:40:05.496Z,84.81
2019-03-27T21:42:33.256Z,85.53
2019-03-27T21:45:01.231Z,85.43
2019-03-27T21:47:29.198Z,85.66
2019-03-27T21:49:57.270Z,86.04
2019-03-27T21:52:26.465Z,85.45
2019-03-27T21:54:54.637Z,84.44
2019-03-27T21:57:22.605Z,84.81
2019-03-27T21:59:50.614Z,85.08
2019-03-27T22:02:19.772Z,84.74
2019-03-27T22:04:47.740Z,84.82
2019-03-27T22:07:19.187Z,84.82
2019-03-27T22:09:45.724Z,84.75
2019-03-27T22:12:14.720Z,85.73
2019-03-27T22:14:42.895Z,85.82
2019-03-27T22:17:10.964Z,86.06
2019-03-27T22:19:39.036Z,85.75
2019-03-27T22:22:07.010Z,86.17
2019-03-27T22:24:34.973Z,86.65
2019-03-27T22:27:02.937Z,85.95
2019-03-27T22:29:31.008Z,86.14
2019-03-27T22:31:58.982Z,85.76
2019-03-27T22:34:27.049Z,85.40
2019-03-27T22:36:55.117Z,85.64
2019-03-27T22:39:23.087Z,85.13
2019-03-27T22:41:51.157Z,85.84
2019-03-27T22:44:19.127Z,86.53
2019-03-27T22:46:47.200Z,86.64
2019-03-27T22:49:15.162Z,86.84
2019-03-27T22:51:43.233Z,86.83
2019-03-27T22:54:11.517Z,85.69
2019-03-27T22:56:39.069Z,86.31
2019-03-27T22:59:07.036Z,86.33
2019-03-27T23:01:43.097Z,86.33
2019-03-27T23:04:10.863Z,86.20
2019-03-27T23:06:38.848Z,85.68
2019-03-27T23:09:06.904Z,86.13
2019-03-27T23:11:35.073Z,86.53
2019-03-27T23:14:03.351Z,86.49
2019-03-27T23:16:31.316Z,86.17
2019-03-27T23:18:59.082Z,86.19
2019-03-27T23:21:26.946Z,86.55
2019-03-27T23:23:54.815Z,85.87
2019-03-27T23:26:22.681Z,86.60
2019-03-27T23:28:50.447Z,87.27
2019-03-27T23:31:18.309Z,88.26
2019-03-27T23:33:46.177Z,87.96
2019-03-27T23:36:14.967Z,87.00
2019-03-27T23:38:42.834Z,86.97
2019-03-27T23:41:10.594Z,87.26
2019-03-27T23:43:38.360Z,86.97
2019-03-27T23:46:06.121Z,86.33
2019-03-27T23:48:33.988Z,85.62
2019-03-27T23:51:01.955Z,86.28
2019-03-27T23:53:30.331Z,86.21
2019-03-27T23:55:58.613Z,87.24
2019-03-27T23:58:26.267Z,87.58
